createdAt,value
2019-01-05T00:01:06.866Z,21.93
2019-01-05T00:04:04.548Z,10.30
2019-01-05T00:06:49.861Z,10.13
2019-01-05T00:09:43.054Z,12.97
2019-01-05T00:12:29.812Z,13.63
2019-01-05T00:15:20.909Z,11.60
2019-01-05T00:18:07.769Z,9.37
2019-01-05T00:20:59.264Z,4.67
2019-01-05T00:23:41.610Z,6.27
2019-01-05T00:26:28.407Z,3.40
2019-01-05T00:29:28.469Z,7.40
2019-01-05T00:32:55.641Z,5.47
2019-01-05T00:36:11.332Z,6.03
2019-01-05T00:39:08.631Z,8.30
2019-01-05T00:41:58.787Z,5.43
2019-01-05T00:44:46.088Z,5.63
2019-01-05T00:47:34.282Z,7.60
2019-01-05T00:50:25.763Z,9.27
2019-01-05T00:53:13.088Z,6.70
2019-01-05T00:55:57.583Z,8.83
2019-01-05T00:58:40.144Z,7.90
2019-01-05T01:01:33.850Z,6.80
2019-01-05T01:04:24.679Z,11.93
2019-01-05T01:07:12.665Z,12.53
2019-01-05T01:10:06.388Z,9.00
2019-01-05T01:12:59.935Z,13.63
2019-01-05T01:15:53.879Z,14.50
2019-01-05T01:18:40.511Z,11.63
2019-01-05T01:21:20.769Z,11.53
2019-01-05T01:24:07.801Z,15.60
2019-01-05T01:26:54.830Z,9.67
2019-01-05T01:29:45.234Z,14.47
2019-01-05T01:32:36.297Z,11.20
2019-01-05T01:35:26.156Z,15.80
2019-01-05T01:38:50.984Z,11.53
2019-01-05T01:41:48.946Z,13.30
2019-01-05T01:44:36.721Z,9.77
2019-01-05T01:47:36.236Z,9.10
2019-01-05T01:50:23.273Z,14.27
2019-01-05T01:53:12.016Z,11.73
2019-01-05T01:56:10.994Z,11.53
2019-01-05T01:59:00.672Z,12.27
2019-01-05T02:01:49.020Z,6.30
2019-01-05T02:04:37.675Z,7.70
2019-01-05T02:07:37.506Z,7.50
2019-01-05T02:10:29.010Z,5.27
2019-01-05T02:13:29.069Z,5.23
2019-01-05T02:16:21.950Z,7.80
2019-01-05T02:19:15.836Z,8.47
2019-01-05T02:22:40.212Z,5.73
2019-01-05T02:26:08.863Z,13.60
2019-01-05T02:29:35.936Z,4.37
2019-01-05T02:33:06.786Z,7.50
2019-01-05T02:36:46.705Z,4.53
2019-01-05T02:40:17.053Z,11.37
2019-01-05T02:47:26.250Z,7.20
2019-01-05T02:50:44.110Z,9.03
2019-01-05T02:54:05.462Z,9.20
2019-01-05T02:57:19.181Z,7.43
2019-01-05T03:00:42.062Z,11.83
2019-01-05T03:03:57.466Z,6.50
2019-01-05T03:07:02.468Z,12.37
2019-01-05T03:10:33.613Z,6.33
2019-01-05T03:14:12.261Z,3.53
2019-01-05T03:17:32.649Z,6.67
2019-01-05T03:21:05.045Z,6.40
2019-01-05T03:24:44.309Z,6.23
2019-01-05T03:28:02.966Z,5.50
2019-01-05T03:31:23.551Z,4.87
2019-01-05T03:34:22.197Z,8.87
2019-01-05T03:38:10.281Z,7.90
2019-01-05T03:41:32.824Z,4.93
2019-01-05T03:45:01.187Z,7.97
2019-01-05T03:48:26.374Z,8.30
2019-01-05T03:52:03.623Z,7.13
2019-01-05T03:55:28.741Z,5.90
2019-01-05T03:59:04.781Z,5.63
2019-01-05T04:02:25.676Z,4.73
2019-01-05T04:05:39.411Z,3.63
2019-01-05T04:09:12.214Z,4.87
2019-01-05T04:12:31.825Z,5.60
2019-01-05T04:15:57.962Z,7.43
2019-01-05T04:19:31.728Z,3.30
2019-01-05T04:22:35.994Z,5.17
2019-01-05T04:26:38.832Z,7.43
2019-01-05T04:30:36.583Z,4.27
2019-01-05T04:34:03.214Z,5.73
2019-01-05T04:37:37.902Z,6.47
2019-01-05T04:41:14.126Z,5.27
2019-01-05T04:44:29.223Z,5.53
2019-01-05T04:47:43.337Z,5.37
2019-01-05T04:51:25.562Z,7.00
2019-01-05T04:55:06.748Z,5.23
2019-01-05T04:58:49.539Z,3.90
2019-01-05T05:02:24.033Z,6.43
2019-01-05T05:05:55.852Z,4.67
2019-01-05T05:09:20.242Z,4.93
2019-01-05T05:12:29.990Z,6.87
2019-01-05T05:16:13.900Z,8.67
2019-01-05T05:19:46.643Z,6.10
2019-01-05T05:23:19.522Z,4.90
2019-01-05T05:26:41.677Z,5.43
2019-01-05T05:30:35.612Z,8.67
2019-01-05T05:34:24.746Z,6.90
2019-01-05T05:37:51.268Z,10.10
2019-01-05T05:41:30.313Z,8.37
2019-01-05T05:44:51.773Z,9.20
2019-01-05T05:47:54.008Z,9.47
2019-01-05T05:51:21.225Z,5.00
2019-01-05T05:54:50.385Z,6.40
2019-01-05T05:58:26.146Z,4.97
2019-01-05T06:01:47.019Z,4.27
2019-01-05T06:05:26.294Z,8.13
2019-01-05T06:08:53.206Z,6.20
2019-01-05T06:12:02.421Z,8.07
2019-01-05T06:15:54.633Z,7.17
2019-01-05T06:19:28.039Z,6.90
2019-01-05T06:22:43.595Z,5.67
2019-01-05T06:26:19.339Z,5.47
2019-01-05T06:33:18.500Z,5.97
2019-01-05T06:36:59.494Z,6.30
2019-01-05T06:40:43.344Z,6.10
2019-01-05T06:44:11.048Z,6.07
2019-01-05T06:47:30.009Z,7.30
2019-01-05T06:50:53.641Z,7.90
2019-01-05T06:54:13.149Z,7.50
2019-01-05T06:57:40.109Z,9.83
2019-01-05T07:01:00.385Z,5.60
2019-01-05T07:04:17.925Z,11.03
2019-01-05T07:07:51.534Z,12.57
2019-01-05T07:11:15.057Z,8.30
2019-01-05T07:14:38.858Z,11.53
2019-01-05T07:18:11.214Z,7.60
2019-01-05T07:21:54.349Z,6.43
2019-01-05T07:25:31.197Z,11.23
2019-01-05T07:28:54.086Z,11.27
2019-01-05T07:32:40.141Z,10.00
2019-01-05T07:36:07.014Z,9.63
2019-01-05T07:39:34.663Z,13.97
2019-01-05T07:42:50.325Z,13.33
2019-01-05T07:46:21.595Z,11.00
2019-01-05T07:49:46.530Z,16.80
2019-01-05T07:53:29.612Z,13.80
2019-01-05T07:57:15.220Z,11.77
2019-01-05T08:01:06.865Z,14.73
2019-01-05T08:04:39.579Z,10.90
2019-01-05T08:08:06.648Z,17.70
2019-01-05T08:11:42.372Z,20.83
2019-01-05T08:15:10.513Z,12.97
2019-01-05T08:19:12.223Z,25.07
2019-01-05T08:22:46.327Z,16.73
2019-01-05T08:26:08.303Z,15.77
2019-01-05T08:30:00.160Z,21.00
2019-01-05T08:33:03.081Z,19.87
2019-01-05T08:36:31.896Z,13.17
2019-01-05T08:39:58.162Z,21.27
2019-01-05T08:43:41.484Z,16.53
2019-01-05T08:47:05.809Z,13.17
2019-01-05T08:50:21.248Z,16.57
2019-01-05T08:54:01.421Z,21.47
2019-01-05T08:57:48.738Z,20.93
2019-01-05T09:01:34.792Z,17.87
2019-01-05T09:05:24.897Z,21.97
2019-01-05T09:08:43.348Z,28.70
2019-01-05T09:12:26.477Z,18.00
2019-01-05T09:15:55.003Z,15.93
2019-01-05T09:19:19.114Z,18.57
2019-01-05T09:22:38.940Z,17.93
2019-01-05T09:26:08.358Z,22.20
2019-01-05T09:29:33.820Z,14.60
2019-01-05T09:33:13.488Z,21.17
2019-01-05T09:36:25.884Z,20.97
2019-01-05T09:39:46.025Z,17.37
2019-01-05T09:43:17.429Z,20.10
2019-01-05T09:46:48.928Z,20.13
2019-01-05T09:50:07.306Z,17.00
2019-01-05T09:53:30.140Z,19.60
2019-01-05T10:00:42.723Z,16.10
2019-01-05T10:04:26.023Z,21.83
2019-01-05T10:07:42.799Z,21.63
2019-01-05T10:11:36.308Z,19.63
2019-01-05T10:15:15.770Z,23.37
2019-01-05T10:18:53.881Z,16.03
2019-01-05T10:22:09.174Z,20.93
2019-01-05T10:26:01.573Z,19.20
2019-01-05T10:29:22.320Z,20.10
2019-01-05T10:33:11.175Z,20.83
2019-01-05T10:36:41.628Z,18.27
2019-01-05T10:40:01.728Z,24.73
2019-01-05T10:43:31.636Z,19.80
2019-01-05T10:47:15.233Z,20.27
2019-01-05T10:50:32.240Z,20.63
2019-01-05T10:53:58.946Z,17.03
2019-01-05T10:57:20.541Z,16.60
2019-01-05T11:00:46.154Z,23.13
2019-01-05T11:04:05.719Z,20.43
2019-01-05T11:08:07.910Z,14.53
2019-01-05T11:11:33.170Z,22.67
2019-01-05T11:14:59.993Z,17.33
2019-01-05T11:22:19.789Z,19.07
2019-01-05T11:26:30.074Z,20.47
2019-01-05T11:29:51.311Z,18.77
2019-01-05T11:33:11.395Z,13.57
2019-01-05T11:36:28.061Z,19.43
2019-01-05T11:39:58.155Z,20.40
2019-01-05T11:43:29.661Z,20.03
2019-01-05T11:46:59.695Z,24.73
2019-01-05T11:50:46.326Z,19.77
2019-01-05T11:54:40.538Z,23.87
2019-01-05T11:58:04.653Z,23.03
2019-01-05T12:01:57.062Z,18.93
2019-01-05T12:05:34.899Z,16.60
2019-01-05T12:09:07.642Z,25.70
2019-01-05T12:12:49.500Z,20.47
2019-01-05T12:16:23.171Z,17.80
2019-01-05T12:19:59.600Z,18.50
2019-01-05T12:23:35.393Z,17.10
2019-01-05T12:27:03.531Z,24.93
2019-01-05T12:30:40.030Z,20.23
2019-01-05T12:34:21.706Z,18.97
2019-01-05T12:38:02.006Z,19.83
2019-01-05T12:41:49.717Z,19.50
2019-01-05T12:45:23.800Z,20.27
2019-01-05T12:48:54.207Z,21.13
2019-01-05T12:52:27.575Z,29.43
2019-01-05T12:55:48.400Z,22.67
2019-01-05T12:58:54.478Z,16.03
2019-01-05T13:02:33.019Z,20.77
2019-01-05T13:06:12.702Z,16.77
2019-01-05T13:10:04.638Z,21.63
2019-01-05T13:13:21.690Z,15.97
2019-01-05T13:17:07.276Z,19.03
2019-01-05T13:20:23.422Z,21.97
2019-01-05T13:24:06.306Z,17.80
2019-01-05T13:27:06.997Z,25.37
2019-01-05T13:31:03.461Z,23.07
2019-01-05T13:34:38.536Z,20.00
2019-01-05T13:37:51.186Z,19.30
2019-01-05T13:41:19.972Z,24.23
2019-01-05T13:44:43.903Z,26.53
2019-01-05T13:48:22.907Z,27.37
2019-01-05T13:51:46.409Z,16.57
2019-01-05T13:54:32.864Z,28.63
2019-01-05T13:57:15.927Z,21.93
2019-01-05T14:00:02.331Z,18.23
2019-01-05T14:02:51.884Z,19.73
2019-01-05T14:05:48.633Z,17.80
2019-01-05T14:08:35.066Z,16.53
2019-01-05T14:11:34.902Z,25.97
2019-01-05T14:14:27.013Z,22.40
2019-01-05T14:17:13.723Z,17.40
2019-01-05T14:20:00.276Z,22.90
2019-01-05T14:23:00.710Z,23.30
2019-01-05T14:25:52.539Z,15.87
2019-01-05T14:28:39.243Z,18.13
2019-01-05T14:31:37.762Z,26.30
2019-01-05T14:34:26.021Z,22.17
2019-01-05T14:37:11.639Z,23.87
2019-01-05T14:39:58.257Z,20.97
2019-01-05T14:42:49.559Z,18.50
2019-01-05T14:45:55.805Z,17.83
2019-01-05T14:48:42.285Z,19.90
2019-01-05T14:51:25.848Z,17.53
2019-01-05T14:57:04.101Z,16.80
2019-01-05T14:59:58.219Z,17.00
2019-01-05T15:02:50.117Z,19.77
2019-01-05T15:05:32.732Z,17.00
2019-01-05T15:08:22.218Z,20.40
2019-01-05T15:11:19.424Z,20.10
2019-01-05T15:14:05.795Z,21.23
2019-01-05T15:16:52.173Z,19.17
2019-01-05T15:19:44.767Z,31.67
2019-01-05T15:22:31.484Z,18.77
2019-01-05T15:25:19.467Z,21.47
2019-01-05T15:28:06.026Z,27.97
2019-01-05T15:30:59.940Z,26.10
2019-01-05T15:34:02.850Z,22.57
2019-01-05T15:37:04.250Z,19.07
2019-01-05T15:39:52.310Z,22.10
2019-01-05T15:42:40.515Z,17.07
2019-01-05T15:45:37.604Z,25.07
2019-01-05T15:48:24.124Z,26.53
2019-01-05T15:51:27.490Z,25.17
2019-01-05T15:54:27.785Z,21.00
2019-01-05T15:57:14.718Z,23.97
2019-01-05T16:00:01.726Z,24.67
2019-01-05T16:02:47.525Z,20.70
2019-01-05T16:05:34.658Z,25.63
2019-01-05T16:08:21.648Z,20.10
2019-01-05T16:11:25.577Z,21.87
2019-01-05T16:14:17.298Z,21.90
2019-01-05T16:17:11.521Z,29.17
2019-01-05T16:20:17.518Z,17.37
2019-01-05T16:23:13.152Z,20.00
2019-01-05T16:26:06.433Z,27.33
2019-01-05T16:28:56.648Z,29.60
2019-01-05T16:32:10.667Z,25.10
2019-01-05T16:34:56.847Z,26.40
2019-01-05T16:37:43.218Z,26.33
2019-01-05T16:40:31.198Z,31.90
2019-01-05T16:43:18.842Z,32.40
2019-01-05T16:46:05.986Z,27.77
2019-01-05T16:48:54.793Z,24.77
2019-01-05T16:51:40.775Z,20.10
2019-01-05T16:54:42.441Z,29.53
2019-01-05T16:57:42.903Z,24.73
2019-01-05T17:00:29.332Z,28.33
2019-01-05T17:03:15.854Z,27.43
2019-01-05T17:06:05.633Z,27.27
2019-01-05T17:09:01.167Z,27.10
2019-01-05T17:11:48.442Z,25.83
2019-01-05T17:14:34.834Z,24.23
2019-01-05T17:17:25.909Z,25.47
2019-01-05T17:20:13.640Z,21.77
2019-01-05T17:23:07.517Z,43.33
2019-01-05T17:26:06.888Z,51.77
2019-01-05T17:29:00.491Z,27.13
2019-01-05T17:31:46.968Z,19.37
2019-01-05T17:34:24.731Z,26.63
2019-01-05T17:37:13.337Z,27.07
2019-01-05T17:40:10.249Z,23.77
2019-01-05T17:43:11.522Z,26.60
2019-01-05T17:45:58.229Z,27.87
2019-01-05T17:49:05.863Z,28.17
2019-01-05T17:52:12.789Z,24.30
2019-01-05T17:55:11.025Z,20.17
2019-01-05T17:57:58.146Z,27.17
2019-01-05T18:01:04.366Z,32.90
2019-01-05T18:03:58.398Z,21.87
2019-01-05T18:06:59.055Z,27.70
2019-01-05T18:09:40.493Z,27.17
2019-01-05T18:12:43.255Z,23.70
2019-01-05T18:15:42.854Z,27.27
2019-01-05T18:18:25.692Z,23.47
2019-01-05T18:21:19.327Z,22.93
2019-01-05T18:24:06.114Z,19.93
2019-01-05T18:39:22.125Z,22.30
2019-01-05T18:42:23.423Z,23.07
2019-01-05T18:45:10.015Z,20.47
2019-01-05T18:48:01.142Z,18.17
2019-01-05T18:50:50.474Z,23.40
2019-01-05T18:53:38.329Z,23.13
2019-01-05T18:56:24.868Z,24.77
2019-01-05T18:59:15.811Z,21.37
2019-01-05T19:02:15.528Z,23.17
2019-01-05T19:05:02.082Z,23.93
2019-01-05T19:07:48.886Z,22.43
2019-01-05T19:10:55.302Z,25.70
2019-01-05T19:14:01.170Z,25.63
2019-01-05T19:16:42.069Z,20.73
2019-01-05T19:19:28.598Z,22.70
2019-01-05T19:22:16.903Z,25.87
2019-01-05T19:25:13.619Z,27.40
2019-01-05T19:28:01.746Z,29.33
2019-01-05T19:30:48.823Z,21.53
2019-01-05T19:33:35.747Z,31.03
2019-01-05T19:36:23.110Z,21.90
2019-01-05T19:39:09.342Z,24.77
2019-01-05T19:41:55.802Z,21.07
2019-01-05T19:44:51.577Z,26.83
2019-01-05T19:47:36.374Z,22.67
2019-01-05T19:50:23.783Z,23.93
2019-01-05T19:53:30.021Z,17.67
2019-01-05T19:56:26.821Z,20.13
2019-01-05T19:59:14.991Z,19.90
2019-01-05T20:02:02.916Z,19.90
2019-01-05T20:04:56.865Z,22.23
2019-01-05T20:07:53.925Z,16.83
2019-01-05T20:10:40.461Z,18.63
2019-01-05T20:13:27.218Z,17.57
2019-01-05T20:16:12.280Z,26.87
2019-01-05T20:18:58.597Z,24.37
2019-01-05T20:21:46.389Z,32.77
2019-01-05T20:24:29.426Z,34.67
2019-01-05T20:27:27.086Z,28.43
2019-01-05T20:30:35.382Z,26.70
2019-01-05T20:33:26.916Z,42.57
2019-01-05T20:36:15.095Z,64.57
2019-01-05T20:39:08.954Z,52.57
2019-01-05T20:42:01.355Z,43.63
2019-01-05T20:44:49.780Z,40.97
2019-01-05T20:47:32.517Z,43.97
2019-01-05T20:50:19.360Z,36.57
2019-01-05T20:53:23.750Z,33.43
2019-01-05T20:56:16.833Z,31.37
2019-01-05T20:59:03.209Z,43.93
2019-01-05T21:02:04.383Z,44.90
2019-01-05T21:04:54.267Z,41.93
2019-01-05T21:07:40.738Z,33.50
2019-01-05T21:10:37.944Z,36.90
2019-01-05T21:13:26.015Z,32.37
2019-01-05T21:16:24.060Z,35.73
2019-01-05T21:19:10.911Z,42.20
2019-01-05T21:22:14.405Z,33.90
2019-01-05T21:25:07.700Z,40.23
2019-01-05T21:27:54.217Z,40.07
2019-01-05T21:30:45.252Z,32.60
2019-01-05T21:33:31.875Z,33.10
2019-01-05T21:36:32.114Z,39.23
2019-01-05T21:39:22.961Z,37.13
2019-01-05T21:42:26.049Z,31.73
2019-01-05T21:45:14.254Z,29.87
2019-01-05T21:48:02.120Z,29.47
2019-01-05T21:50:47.823Z,26.90
2019-01-05T21:53:34.440Z,29.17
2019-01-05T21:56:21.198Z,25.77
2019-01-05T21:59:07.951Z,25.67
2019-01-05T22:01:54.646Z,32.50
2019-01-05T22:04:41.145Z,26.63
2019-01-05T22:07:47.499Z,31.30
2019-01-05T22:10:33.861Z,33.93
2019-01-05T22:13:21.043Z,30.10
2019-01-05T22:16:02.562Z,31.37
2019-01-05T22:18:50.881Z,33.50
2019-01-05T22:21:37.382Z,28.97
2019-01-05T22:24:25.673Z,27.07
2019-01-05T22:27:15.860Z,21.90
2019-01-05T22:30:09.972Z,24.23
2019-01-05T22:32:56.815Z,21.97
2019-01-05T22:35:43.533Z,21.47
2019-01-05T22:38:34.520Z,21.10
2019-01-05T22:41:21.277Z,27.53
2019-01-05T22:44:07.914Z,24.43
2019-01-05T22:46:54.690Z,24.17
2019-01-05T22:49:43.738Z,22.37
2019-01-05T22:52:31.850Z,21.37
2019-01-05T22:55:25.905Z,22.67
2019-01-05T22:58:09.730Z,18.37
2019-01-05T23:01:10.594Z,19.00
2019-01-05T23:04:03.617Z,16.57
2019-01-05T23:06:50.850Z,16.03
2019-01-05T23:09:35.618Z,14.60
2019-01-05T23:12:26.558Z,13.20
2019-01-05T23:15:17.511Z,13.63
2019-01-05T23:18:08.406Z,13.87
2019-01-05T23:20:59.393Z,13.30
2019-01-05T23:23:46.261Z,12.33
2019-01-05T23:26:33.252Z,12.07
2019-01-05T23:29:16.537Z,12.87
2019-01-05T23:32:05.956Z,13.47
2019-01-05T23:34:51.053Z,12.83
2019-01-05T23:37:37.784Z,14.00
2019-01-05T23:40:24.992Z,13.77
2019-01-05T23:43:02.383Z,12.33
2019-01-05T23:46:01.539Z,12.20
2019-01-05T23:48:52.502Z,14.67
2019-01-05T23:51:39.032Z,11.90
2019-01-05T23:54:25.918Z,11.63
2019-01-05T23:57:20.563Z,13.60
